sensor_id;sensor_type;location;lat;lon;timestamp;P1;durP1;ratioP1;P2;durP2;ratioP2
20110;SDS011;10216;42.658;23.248;2022-07-23T00:00:45;7.80;;;4.17;;
20110;SDS011;10216;42.658;23.248;2022-07-23T00:03:11;5.00;;;3.90;;
20110;SDS011;10216;42.658;23.248;2022-07-23T00:05:37;6.77;;;4.30;;
20110;SDS011;10216;42.658;23.248;2022-07-23T00:08:02;5.27;;;3.90;;
20110;SDS011;10216;42.658;23.248;2022-07-23T00:10:28;7.40;;;4.30;;
20110;SDS011;10216;42.658;23.248;2022-07-23T00:12:53;7.53;;;4.10;;
20110;SDS011;10216;42.658;23.248;2022-07-23T00:15:19;5.80;;;4.30;;
20110;SDS011;10216;42.658;23.248;2022-07-23T00:17:44;6.87;;;4.40;;
20110;SDS011;10216;42.658;23.248;2022-07-23T00:20:09;6.27;;;4.10;;
20110;SDS011;10216;42.658;23.248;2022-07-23T00:22:35;6.87;;;4.30;;
20110;SDS011;10216;42.658;23.248;2022-07-23T00:25:00;8.47;;;4.27;;
20110;SDS011;10216;42.658;23.248;2022-07-23T00:27:26;7.43;;;4.53;;
20110;SDS011;10216;42.658;23.248;2022-07-23T00:29:53;5.83;;;4.30;;
20110;SDS011;10216;42.658;23.248;2022-07-23T00:32:19;5.93;;;4.47;;
20110;SDS011;10216;42.658;23.248;2022-07-23T00:34:44;8.17;;;4.30;;
20110;SDS011;10216;42.658;23.248;2022-07-23T00:37:10;7.50;;;4.47;;
20110;SDS011;10216;42.658;23.248;2022-07-23T00:39:35;6.87;;;4.10;;
20110;SDS011;10216;42.658;23.248;2022-07-23T00:42:00;5.90;;;3.90;;
20110;SDS011;10216;42.658;23.248;2022-07-23T00:44:26;6.10;;;4.37;;
20110;SDS011;10216;42.658;23.248;2022-07-23T00:46:54;5.17;;;4.37;;
20110;SDS011;10216;42.658;23.248;2022-07-23T00:49:21;8.20;;;4.43;;
20110;SDS011;10216;42.658;23.248;2022-07-23T00:51:48;4.93;;;3.93;;
20110;SDS011;10216;42.658;23.248;2022-07-23T00:54:14;5.63;;;4.40;;
20110;SDS011;10216;42.658;23.248;2022-07-23T00:56:41;7.00;;;4.37;;
20110;SDS011;10216;42.658;23.248;2022-07-23T00:59:08;5.40;;;4.30;;
20110;SDS011;10216;42.658;23.248;2022-07-23T01:01:33;6.70;;;4.37;;
20110;SDS011;10216;42.658;23.248;2022-07-23T01:03:59;6.30;;;4.03;;
20110;SDS011;10216;42.658;23.248;2022-07-23T01:06:24;9.30;;;5.03;;
20110;SDS011;10216;42.658;23.248;2022-07-23T01:08:50;5.73;;;4.33;;
20110;SDS011;10216;42.658;23.248;2022-07-23T01:11:16;7.77;;;4.60;;
20110;SDS011;10216;42.658;23.248;2022-07-23T01:13:43;8.30;;;5.07;;
20110;SDS011;10216;42.658;23.248;2022-07-23T01:16:09;7.60;;;4.77;;
20110;SDS011;10216;42.658;23.248;2022-07-23T01:18:35;7.73;;;5.33;;
20110;SDS011;10216;42.658;23.248;2022-07-23T01:21:01;8.87;;;5.57;;
20110;SDS011;10216;42.658;23.248;2022-07-23T01:23:26;6.80;;;5.23;;
20110;SDS011;10216;42.658;23.248;2022-07-23T01:25:52;6.83;;;4.73;;
20110;SDS011;10216;42.658;23.248;2022-07-23T01:28:18;8.80;;;4.80;;
20110;SDS011;10216;42.658;23.248;2022-07-23T01:30:44;8.43;;;5.53;;
20110;SDS011;10216;42.658;23.248;2022-07-23T01:33:11;7.33;;;5.00;;
20110;SDS011;10216;42.658;23.248;2022-07-23T01:35:36;7.57;;;5.10;;
20110;SDS011;10216;42.658;23.248;2022-07-23T01:38:02;8.30;;;4.97;;
20110;SDS011;10216;42.658;23.248;2022-07-23T01:40:27;8.03;;;4.90;;
20110;SDS011;10216;42.658;23.248;2022-07-23T01:42:53;7.43;;;5.03;;
20110;SDS011;10216;42.658;23.248;2022-07-23T01:45:18;7.97;;;5.57;;
20110;SDS011;10216;42.658;23.248;2022-07-23T01:47:43;9.20;;;5.73;;
20110;SDS011;10216;42.658;23.248;2022-07-23T01:50:09;8.07;;;4.97;;
20110;SDS011;10216;42.658;23.248;2022-07-23T01:52:35;7.87;;;5.33;;
20110;SDS011;10216;42.658;23.248;2022-07-23T01:55:00;5.80;;;4.50;;
20110;SDS011;10216;42.658;23.248;2022-07-23T01:57:25;7.50;;;5.30;;
20110;SDS011;10216;42.658;23.248;2022-07-23T01:59:51;8.67;;;5.40;;
20110;SDS011;10216;42.658;23.248;2022-07-23T02:02:16;8.13;;;5.67;;
20110;SDS011;10216;42.658;23.248;2022-07-23T02:04:43;9.13;;;5.37;;
20110;SDS011;10216;42.658;23.248;2022-07-23T02:07:09;8.53;;;5.53;;
20110;SDS011;10216;42.658;23.248;2022-07-23T02:09:34;7.13;;;5.10;;
20110;SDS011;10216;42.658;23.248;2022-07-23T02:12:00;7.40;;;4.87;;
20110;SDS011;10216;42.658;23.248;2022-07-23T02:14:26;7.53;;;5.10;;
20110;SDS011;10216;42.658;23.248;2022-07-23T02:16:54;8.90;;;5.17;;
20110;SDS011;10216;42.658;23.248;2022-07-23T02:19:20;7.83;;;5.67;;
20110;SDS011;10216;42.658;23.248;2022-07-23T02:21:45;10.87;;;5.43;;
20110;SDS011;10216;42.658;23.248;2022-07-23T02:24:11;8.67;;;5.10;;
20110;SDS011;10216;42.658;23.248;2022-07-23T02:26:36;9.20;;;4.97;;
20110;SDS011;10216;42.658;23.248;2022-07-23T02:29:05;9.07;;;5.10;;
20110;SDS011;10216;42.658;23.248;2022-07-23T02:31:31;8.73;;;5.13;;
20110;SDS011;10216;42.658;23.248;2022-07-23T02:33:56;9.27;;;5.23;;
20110;SDS011;10216;42.658;23.248;2022-07-23T02:36:22;5.90;;;4.60;;
20110;SDS011;10216;42.658;23.248;2022-07-23T02:38:47;8.07;;;5.03;;
20110;SDS011;10216;42.658;23.248;2022-07-23T02:41:13;8.23;;;5.23;;
20110;SDS011;10216;42.658;23.248;2022-07-23T02:43:38;6.93;;;4.70;;
20110;SDS011;10216;42.658;23.248;2022-07-23T02:46:04;9.77;;;4.57;;
20110;SDS011;10216;42.658;23.248;2022-07-23T02:48:29;6.17;;;4.30;;
20110;SDS011;10216;42.658;23.248;2022-07-23T02:50:55;9.63;;;4.73;;
20110;SDS011;10216;42.658;23.248;2022-07-23T02:53:21;8.07;;;4.67;;
20110;SDS011;10216;42.658;23.248;2022-07-23T02:55:47;7.27;;;4.60;;
20110;SDS011;10216;42.658;23.248;2022-07-23T02:58:13;10.87;;;4.60;;
20110;SDS011;10216;42.658;23.248;2022-07-23T03:00:39;6.70;;;4.57;;
20110;SDS011;10216;42.658;23.248;2022-07-23T03:03:04;7.53;;;5.00;;
20110;SDS011;10216;42.658;23.248;2022-07-23T03:05:30;8.80;;;5.20;;
20110;SDS011;10216;42.658;23.248;2022-07-23T03:07:55;7.10;;;4.97;;
20110;SDS011;10216;42.658;23.248;2022-07-23T03:10:20;7.53;;;4.70;;
20110;SDS011;10216;42.658;23.248;2022-07-23T03:12:46;8.43;;;4.83;;
20110;SDS011;10216;42.658;23.248;2022-07-23T03:15:11;6.53;;;4.83;;
20110;SDS011;10216;42.658;23.248;2022-07-23T03:17:37;9.43;;;4.73;;
20110;SDS011;10216;42.658;23.248;2022-07-23T03:20:02;8.67;;;4.90;;
20110;SDS011;10216;42.658;23.248;2022-07-23T03:22:28;6.73;;;4.63;;
20110;SDS011;10216;42.658;23.248;2022-07-23T03:24:53;5.87;;;4.60;;
20110;SDS011;10216;42.658;23.248;2022-07-23T03:27:19;7.33;;;4.93;;
20110;SDS011;10216;42.658;23.248;2022-07-23T03:29:45;8.83;;;5.20;;
20110;SDS011;10216;42.658;23.248;2022-07-23T03:32:10;7.47;;;5.20;;
20110;SDS011;10216;42.658;23.248;2022-07-23T03:34:35;7.90;;;4.67;;
20110;SDS011;10216;42.658;23.248;2022-07-23T03:37:01;5.80;;;4.70;;
20110;SDS011;10216;42.658;23.248;2022-07-23T03:39:26;9.30;;;4.77;;
20110;SDS011;10216;42.658;23.248;2022-07-23T03:41:52;7.27;;;5.40;;
20110;SDS011;10216;42.658;23.248;2022-07-23T03:44:18;8.30;;;5.27;;
20110;SDS011;10216;42.658;23.248;2022-07-23T03:46:43;7.00;;;4.73;;
20110;SDS011;10216;42.658;23.248;2022-07-23T03:49:08;7.97;;;5.10;;
20110;SDS011;10216;42.658;23.248;2022-07-23T03:51:34;7.07;;;5.30;;
20110;SDS011;10216;42.658;23.248;2022-07-23T03:53:59;7.03;;;5.13;;
20110;SDS011;10216;42.658;23.248;2022-07-23T03:56:25;7.17;;;5.30;;
20110;SDS011;10216;42.658;23.248;2022-07-23T03:58:51;7.93;;;5.10;;
20110;SDS011;10216;42.658;23.248;2022-07-23T04:01:16;7.73;;;5.03;;
20110;SDS011;10216;42.658;23.248;2022-07-23T04:03:42;7.23;;;5.43;;
20110;SDS011;10216;42.658;23.248;2022-07-23T04:06:07;49.90;;;7.10;;
20110;SDS011;10216;42.658;23.248;2022-07-23T04:08:33;20.60;;;6.13;;
20110;SDS011;10216;42.658;23.248;2022-07-23T04:10:58;6.17;;;5.53;;
20110;SDS011;10216;42.658;23.248;2022-07-23T04:13:24;7.93;;;5.97;;
20110;SDS011;10216;42.658;23.248;2022-07-23T04:15:49;12.33;;;5.83;;
20110;SDS011;10216;42.658;23.248;2022-07-23T04:18:15;8.57;;;6.13;;
20110;SDS011;10216;42.658;23.248;2022-07-23T04:20:42;7.50;;;5.93;;
20110;SDS011;10216;42.658;23.248;2022-07-23T04:23:08;6.70;;;5.70;;
20110;SDS011;10216;42.658;23.248;2022-07-23T04:25:34;7.23;;;6.10;;
20110;SDS011;10216;42.658;23.248;2022-07-23T04:28:00;11.43;;;6.37;;
20110;SDS011;10216;42.658;23.248;2022-07-23T04:30:26;7.27;;;6.47;;
20110;SDS011;10216;42.658;23.248;2022-07-23T04:32:51;8.63;;;6.03;;
20110;SDS011;10216;42.658;23.248;2022-07-23T04:35:16;8.63;;;5.93;;
20110;SDS011;10216;42.658;23.248;2022-07-23T04:37:42;10.63;;;6.40;;
20110;SDS011;10216;42.658;23.248;2022-07-23T04:40:07;8.90;;;6.90;;
20110;SDS011;10216;42.658;23.248;2022-07-23T04:42:33;9.30;;;5.67;;
20110;SDS011;10216;42.658;23.248;2022-07-23T04:44:58;7.57;;;5.87;;
20110;SDS011;10216;42.658;23.248;2022-07-23T04:47:24;10.03;;;6.30;;
20110;SDS011;10216;42.658;23.248;2022-07-23T04:49:49;10.33;;;5.90;;
20110;SDS011;10216;42.658;23.248;2022-07-23T04:52:15;8.20;;;5.73;;
20110;SDS011;10216;42.658;23.248;2022-07-23T04:54:40;6.60;;;5.17;;
20110;SDS011;10216;42.658;23.248;2022-07-23T04:57:05;8.93;;;5.50;;
20110;SDS011;10216;42.658;23.248;2022-07-23T04:59:31;9.57;;;5.20;;
20110;SDS011;10216;42.658;23.248;2022-07-23T05:01:56;7.80;;;5.90;;
20110;SDS011;10216;42.658;23.248;2022-07-23T05:04:21;10.27;;;5.53;;
20110;SDS011;10216;42.658;23.248;2022-07-23T05:06:47;11.47;;;5.10;;
20110;SDS011;10216;42.658;23.248;2022-07-23T05:09:12;8.60;;;5.80;;
20110;SDS011;10216;42.658;23.248;2022-07-23T05:11:38;12.40;;;5.53;;
20110;SDS011;10216;42.658;23.248;2022-07-23T05:14:03;5.23;;;4.73;;
20110;SDS011;10216;42.658;23.248;2022-07-23T05:16:29;11.80;;;4.97;;
20110;SDS011;10216;42.658;23.248;2022-07-23T05:18:54;9.53;;;5.00;;
20110;SDS011;10216;42.658;23.248;2022-07-23T05:21:20;9.37;;;5.10;;
20110;SDS011;10216;42.658;23.248;2022-07-23T05:23:45;7.53;;;5.30;;
20110;SDS011;10216;42.658;23.248;2022-07-23T05:26:11;10.10;;;5.60;;
20110;SDS011;10216;42.658;23.248;2022-07-23T05:28:39;8.97;;;5.27;;
20110;SDS011;10216;42.658;23.248;2022-07-23T05:31:04;8.80;;;5.27;;
20110;SDS011;10216;42.658;23.248;2022-07-23T05:33:29;9.53;;;5.63;;
20110;SDS011;10216;42.658;23.248;2022-07-23T05:36:00;12.23;;;5.37;;
20110;SDS011;10216;42.658;23.248;2022-07-23T05:38:28;8.33;;;5.70;;
20110;SDS011;10216;42.658;23.248;2022-07-23T05:40:54;7.30;;;5.27;;
20110;SDS011;10216;42.658;23.248;2022-07-23T05:43:20;9.30;;;5.50;;
20110;SDS011;10216;42.658;23.248;2022-07-23T05:45:45;7.10;;;5.17;;
20110;SDS011;10216;42.658;23.248;2022-07-23T05:48:11;11.67;;;4.73;;
20110;SDS011;10216;42.658;23.248;2022-07-23T05:50:36;11.47;;;5.67;;
20110;SDS011;10216;42.658;23.248;2022-07-23T05:53:01;11.47;;;5.37;;
20110;SDS011;10216;42.658;23.248;2022-07-23T05:55:27;9.57;;;6.20;;
20110;SDS011;10216;42.658;23.248;2022-07-23T05:57:54;11.20;;;5.87;;
20110;SDS011;10216;42.658;23.248;2022-07-23T06:00:21;7.90;;;5.57;;
20110;SDS011;10216;42.658;23.248;2022-07-23T06:02:46;8.50;;;5.27;;
20110;SDS011;10216;42.658;23.248;2022-07-23T06:05:12;9.70;;;5.63;;
20110;SDS011;10216;42.658;23.248;2022-07-23T06:07:39;11.33;;;5.40;;
20110;SDS011;10216;42.658;23.248;2022-07-23T06:10:05;8.93;;;5.70;;
20110;SDS011;10216;42.658;23.248;2022-07-23T06:12:31;9.67;;;5.80;;
20110;SDS011;10216;42.658;23.248;2022-07-23T06:14:56;9.30;;;5.40;;
20110;SDS011;10216;42.658;23.248;2022-07-23T06:17:22;14.57;;;5.70;;
20110;SDS011;10216;42.658;23.248;2022-07-23T06:19:47;10.33;;;5.80;;
20110;SDS011;10216;42.658;23.248;2022-07-23T06:22:12;10.77;;;5.70;;
20110;SDS011;10216;42.658;23.248;2022-07-23T06:24:38;10.00;;;5.60;;
20110;SDS011;10216;42.658;23.248;2022-07-23T06:27:03;13.20;;;5.97;;
20110;SDS011;10216;42.658;23.248;2022-07-23T06:29:29;7.07;;;6.00;;
20110;SDS011;10216;42.658;23.248;2022-07-23T06:31:54;11.53;;;6.27;;
20110;SDS011;10216;42.658;23.248;2022-07-23T06:34:20;12.43;;;6.73;;
20110;SDS011;10216;42.658;23.248;2022-07-23T06:36:45;9.03;;;6.37;;
20110;SDS011;10216;42.658;23.248;2022-07-23T06:39:10;12.43;;;6.70;;
20110;SDS011;10216;42.658;23.248;2022-07-23T06:41:36;14.87;;;7.27;;
20110;SDS011;10216;42.658;23.248;2022-07-23T06:44:01;9.30;;;6.63;;
20110;SDS011;10216;42.658;23.248;2022-07-23T06:46:27;9.60;;;6.10;;
20110;SDS011;10216;42.658;23.248;2022-07-23T06:48:52;8.63;;;6.37;;
20110;SDS011;10216;42.658;23.248;2022-07-23T06:51:17;11.03;;;6.70;;
20110;SDS011;10216;42.658;23.248;2022-07-23T06:53:43;10.83;;;6.70;;
20110;SDS011;10216;42.658;23.248;2022-07-23T06:56:08;11.37;;;6.93;;
20110;SDS011;10216;42.658;23.248;2022-07-23T06:58:34;9.97;;;6.67;;
20110;SDS011;10216;42.658;23.248;2022-07-23T07:00:59;8.77;;;6.10;;
20110;SDS011;10216;42.658;23.248;2022-07-23T07:03:24;15.23;;;6.87;;
20110;SDS011;10216;42.658;23.248;2022-07-23T07:05:50;29.03;;;10.20;;
20110;SDS011;10216;42.658;23.248;2022-07-23T07:08:15;11.13;;;7.63;;
20110;SDS011;10216;42.658;23.248;2022-07-23T07:10:41;13.67;;;7.17;;
20110;SDS011;10216;42.658;23.248;2022-07-23T07:13:06;9.07;;;7.20;;
20110;SDS011;10216;42.658;23.248;2022-07-23T07:15:32;9.83;;;6.73;;
20110;SDS011;10216;42.658;23.248;2022-07-23T07:17:57;13.73;;;7.00;;
20110;SDS011;10216;42.658;23.248;2022-07-23T07:20:22;10.27;;;6.60;;
20110;SDS011;10216;42.658;23.248;2022-07-23T07:22:48;12.13;;;7.13;;
20110;SDS011;10216;42.658;23.248;2022-07-23T07:25:15;13.70;;;7.83;;
20110;SDS011;10216;42.658;23.248;2022-07-23T07:27:42;10.40;;;6.68;;
20110;SDS011;10216;42.658;23.248;2022-07-23T07:30:12;9.93;;;7.38;;
20110;SDS011;10216;42.658;23.248;2022-07-23T07:32:37;10.85;;;7.25;;
20110;SDS011;10216;42.658;23.248;2022-07-23T07:35:04;12.77;;;7.22;;
20110;SDS011;10216;42.658;23.248;2022-07-23T07:37:29;11.38;;;6.90;;
20110;SDS011;10216;42.658;23.248;2022-07-23T07:39:55;10.40;;;7.90;;
20110;SDS011;10216;42.658;23.248;2022-07-23T07:42:20;11.80;;;7.20;;
20110;SDS011;10216;42.658;23.248;2022-07-23T07:44:46;12.02;;;7.43;;
20110;SDS011;10216;42.658;23.248;2022-07-23T07:47:11;10.00;;;7.00;;
20110;SDS011;10216;42.658;23.248;2022-07-23T07:49:37;13.30;;;7.63;;
20110;SDS011;10216;42.658;23.248;2022-07-23T07:52:02;10.25;;;6.93;;
20110;SDS011;10216;42.658;23.248;2022-07-23T07:54:28;10.23;;;7.38;;
20110;SDS011;10216;42.658;23.248;2022-07-23T07:56:53;13.15;;;7.40;;
20110;SDS011;10216;42.658;23.248;2022-07-23T07:59:19;12.98;;;7.55;;
20110;SDS011;10216;42.658;23.248;2022-07-23T08:01:44;11.20;;;7.30;;
20110;SDS011;10216;42.658;23.248;2022-07-23T08:04:09;11.50;;;7.53;;
20110;SDS011;10216;42.658;23.248;2022-07-23T08:06:35;9.73;;;7.82;;
20110;SDS011;10216;42.658;23.248;2022-07-23T08:09:00;9.40;;;7.13;;
20110;SDS011;10216;42.658;23.248;2022-07-23T08:11:25;13.75;;;8.32;;
20110;SDS011;10216;42.658;23.248;2022-07-23T08:13:51;13.13;;;7.80;;
20110;SDS011;10216;42.658;23.248;2022-07-23T08:16:16;12.20;;;7.78;;
20110;SDS011;10216;42.658;23.248;2022-07-23T08:18:43;12.32;;;7.47;;
20110;SDS011;10216;42.658;23.248;2022-07-23T08:21:09;12.05;;;8.25;;
20110;SDS011;10216;42.658;23.248;2022-07-23T08:23:34;10.25;;;7.25;;
20110;SDS011;10216;42.658;23.248;2022-07-23T08:25:59;10.18;;;7.03;;
20110;SDS011;10216;42.658;23.248;2022-07-23T08:28:28;9.18;;;7.10;;
20110;SDS011;10216;42.658;23.248;2022-07-23T08:31:00;12.02;;;7.30;;
20110;SDS011;10216;42.658;23.248;2022-07-23T08:33:25;13.00;;;7.50;;
20110;SDS011;10216;42.658;23.248;2022-07-23T08:35:51;12.00;;;7.72;;
20110;SDS011;10216;42.658;23.248;2022-07-23T08:38:21;10.85;;;8.00;;
20110;SDS011;10216;42.658;23.248;2022-07-23T08:40:53;10.63;;;8.05;;
20110;SDS011;10216;42.658;23.248;2022-07-23T08:43:21;10.50;;;7.25;;
20110;SDS011;10216;42.658;23.248;2022-07-23T08:45:48;11.23;;;7.40;;
20110;SDS011;10216;42.658;23.248;2022-07-23T08:48:16;8.77;;;6.47;;
20110;SDS011;10216;42.658;23.248;2022-07-23T08:50:44;8.48;;;6.57;;
20110;SDS011;10216;42.658;23.248;2022-07-23T08:53:11;10.38;;;7.07;;
20110;SDS011;10216;42.658;23.248;2022-07-23T08:55:40;10.30;;;7.03;;
20110;SDS011;10216;42.658;23.248;2022-07-23T08:58:09;10.52;;;6.78;;
20110;SDS011;10216;42.658;23.248;2022-07-23T09:00:34;9.88;;;6.85;;
20110;SDS011;10216;42.658;23.248;2022-07-23T09:03:00;9.43;;;6.38;;
20110;SDS011;10216;42.658;23.248;2022-07-23T09:05:25;11.40;;;6.18;;
20110;SDS011;10216;42.658;23.248;2022-07-23T09:10:52;11.73;;;7.00;;
20110;SDS011;10216;42.658;23.248;2022-07-23T09:13:28;11.98;;;6.60;;
20110;SDS011;10216;42.658;23.248;2022-07-23T09:16:00;12.95;;;7.45;;
20110;SDS011;10216;42.658;23.248;2022-07-23T09:18:49;8.52;;;6.15;;
20110;SDS011;10216;42.658;23.248;2022-07-23T09:21:20;8.05;;;6.13;;
20110;SDS011;10216;42.658;23.248;2022-07-23T09:26:27;10.63;;;5.88;;
20110;SDS011;10216;42.658;23.248;2022-07-23T09:31:22;10.23;;;6.32;;
20110;SDS011;10216;42.658;23.248;2022-07-23T09:33:48;11.52;;;6.15;;
20110;SDS011;10216;42.658;23.248;2022-07-23T09:36:13;10.38;;;5.63;;
20110;SDS011;10216;42.658;23.248;2022-07-23T09:38:49;12.07;;;6.07;;
20110;SDS011;10216;42.658;23.248;2022-07-23T09:41:15;9.27;;;5.65;;
20110;SDS011;10216;42.658;23.248;2022-07-23T09:43:41;9.95;;;5.20;;
20110;SDS011;10216;42.658;23.248;2022-07-23T09:46:27;11.90;;;5.32;;
20110;SDS011;10216;42.658;23.248;2022-07-23T09:48:55;7.25;;;5.32;;
20110;SDS011;10216;42.658;23.248;2022-07-23T09:51:22;12.13;;;5.72;;
20110;SDS011;10216;42.658;23.248;2022-07-23T09:53:51;9.48;;;5.53;;
20110;SDS011;10216;42.658;23.248;2022-07-23T09:56:16;7.63;;;5.90;;
20110;SDS011;10216;42.658;23.248;2022-07-23T09:58:42;8.80;;;5.05;;
20110;SDS011;10216;42.658;23.248;2022-07-23T10:01:13;9.32;;;6.13;;
20110;SDS011;10216;42.658;23.248;2022-07-23T10:03:39;8.85;;;6.55;;
20110;SDS011;10216;42.658;23.248;2022-07-23T10:06:07;6.65;;;5.30;;
20110;SDS011;10216;42.658;23.248;2022-07-23T10:08:34;10.65;;;7.80;;
20110;SDS011;10216;42.658;23.248;2022-07-23T10:11:00;9.00;;;5.03;;
20110;SDS011;10216;42.658;23.248;2022-07-23T10:13:26;6.85;;;5.13;;
20110;SDS011;10216;42.658;23.248;2022-07-23T10:16:11;9.05;;;6.03;;
20110;SDS011;10216;42.658;23.248;2022-07-23T10:18:37;11.48;;;6.22;;
20110;SDS011;10216;42.658;23.248;2022-07-23T10:21:05;8.30;;;5.00;;
20110;SDS011;10216;42.658;23.248;2022-07-23T10:26:22;7.22;;;5.20;;
20110;SDS011;10216;42.658;23.248;2022-07-23T10:34:08;10.93;;;5.22;;
20110;SDS011;10216;42.658;23.248;2022-07-23T10:36:47;8.20;;;5.22;;
20110;SDS011;10216;42.658;23.248;2022-07-23T10:39:19;7.38;;;5.03;;
20110;SDS011;10216;42.658;23.248;2022-07-23T10:41:49;7.47;;;5.03;;
20110;SDS011;10216;42.658;23.248;2022-07-23T10:44:17;9.05;;;4.97;;
20110;SDS011;10216;42.658;23.248;2022-07-23T10:47:02;8.43;;;4.65;;
20110;SDS011;10216;42.658;23.248;2022-07-23T10:49:44;6.72;;;5.25;;
20110;SDS011;10216;42.658;23.248;2022-07-23T10:54:38;9.52;;;4.78;;
20110;SDS011;10216;42.658;23.248;2022-07-23T10:57:05;8.25;;;5.03;;
20110;SDS011;10216;42.658;23.248;2022-07-23T10:59:31;10.27;;;5.30;;
20110;SDS011;10216;42.658;23.248;2022-07-23T11:02:20;10.07;;;4.60;;
20110;SDS011;10216;42.658;23.248;2022-07-23T11:04:48;9.73;;;4.60;;
20110;SDS011;10216;42.658;23.248;2022-07-23T11:07:18;11.45;;;5.40;;
20110;SDS011;10216;42.658;23.248;2022-07-23T11:09:43;8.07;;;4.88;;
20110;SDS011;10216;42.658;23.248;2022-07-23T11:17:24;9.45;;;4.43;;
20110;SDS011;10216;42.658;23.248;2022-07-23T11:25:02;7.80;;;4.20;;
20110;SDS011;10216;42.658;23.248;2022-07-23T11:27:40;13.32;;;4.65;;
20110;SDS011;10216;42.658;23.248;2022-07-23T11:30:07;9.55;;;5.80;;
20110;SDS011;10216;42.658;23.248;2022-07-23T11:32:37;10.68;;;5.47;;
20110;SDS011;10216;42.658;23.248;2022-07-23T11:35:41;12.25;;;5.43;;
20110;SDS011;10216;42.658;23.248;2022-07-23T11:38:06;10.80;;;4.18;;
20110;SDS011;10216;42.658;23.248;2022-07-23T11:40:46;9.57;;;4.10;;
20110;SDS011;10216;42.658;23.248;2022-07-23T11:43:16;7.65;;;4.15;;
20110;SDS011;10216;42.658;23.248;2022-07-23T11:45:47;11.32;;;3.78;;
20110;SDS011;10216;42.658;23.248;2022-07-23T11:48:22;10.30;;;4.07;;
20110;SDS011;10216;42.658;23.248;2022-07-23T11:50:49;9.43;;;4.07;;
20110;SDS011;10216;42.658;23.248;2022-07-23T11:55:49;13.50;;;4.35;;
20110;SDS011;10216;42.658;23.248;2022-07-23T11:58:15;13.95;;;4.38;;
20110;SDS011;10216;42.658;23.248;2022-07-23T12:00:41;11.55;;;4.22;;
20110;SDS011;10216;42.658;23.248;2022-07-23T12:03:07;10.80;;;4.22;;
20110;SDS011;10216;42.658;23.248;2022-07-23T12:05:36;9.88;;;4.07;;
20110;SDS011;10216;42.658;23.248;2022-07-23T12:08:04;11.88;;;4.60;;
20110;SDS011;10216;42.658;23.248;2022-07-23T12:10:41;9.07;;;3.60;;
20110;SDS011;10216;42.658;23.248;2022-07-23T12:13:09;9.38;;;4.20;;
20110;SDS011;10216;42.658;23.248;2022-07-23T12:15:46;10.90;;;3.95;;
20110;SDS011;10216;42.658;23.248;2022-07-23T12:18:17;12.05;;;3.97;;
20110;SDS011;10216;42.658;23.248;2022-07-23T12:20:46;12.52;;;4.70;;
20110;SDS011;10216;42.658;23.248;2022-07-23T12:23:14;10.35;;;3.72;;
20110;SDS011;10216;42.658;23.248;2022-07-23T12:25:42;11.18;;;4.30;;
20110;SDS011;10216;42.658;23.248;2022-07-23T12:33:08;13.95;;;5.35;;
20110;SDS011;10216;42.658;23.248;2022-07-23T12:35:36;9.60;;;4.20;;
20110;SDS011;10216;42.658;23.248;2022-07-23T12:38:06;10.38;;;4.90;;
20110;SDS011;10216;42.658;23.248;2022-07-23T12:40:35;12.88;;;4.72;;
20110;SDS011;10216;42.658;23.248;2022-07-23T12:43:07;12.23;;;4.75;;
20110;SDS011;10216;42.658;23.248;2022-07-23T12:45:41;10.70;;;4.90;;
20110;SDS011;10216;42.658;23.248;2022-07-23T12:48:28;10.60;;;3.97;;
20110;SDS011;10216;42.658;23.248;2022-07-23T12:56:00;9.80;;;3.78;;
20110;SDS011;10216;42.658;23.248;2022-07-23T12:58:40;15.20;;;4.50;;
20110;SDS011;10216;42.658;23.248;2022-07-23T13:03:54;13.15;;;4.05;;
20110;SDS011;10216;42.658;23.248;2022-07-23T13:06:21;10.05;;;4.30;;
20110;SDS011;10216;42.658;23.248;2022-07-23T13:08:46;8.40;;;4.10;;
20110;SDS011;10216;42.658;23.248;2022-07-23T13:11:12;13.20;;;3.90;;
20110;SDS011;10216;42.658;23.248;2022-07-23T13:13:37;12.10;;;4.00;;
20110;SDS011;10216;42.658;23.248;2022-07-23T13:16:05;10.98;;;3.70;;
20110;SDS011;10216;42.658;23.248;2022-07-23T13:18:31;10.95;;;4.07;;
20110;SDS011;10216;42.658;23.248;2022-07-23T13:20:56;9.90;;;3.97;;
20110;SDS011;10216;42.658;23.248;2022-07-23T13:23:22;8.98;;;3.55;;
20110;SDS011;10216;42.658;23.248;2022-07-23T13:25:48;10.90;;;3.90;;
20110;SDS011;10216;42.658;23.248;2022-07-23T13:28:14;12.25;;;4.70;;
20110;SDS011;10216;42.658;23.248;2022-07-23T13:30:40;8.77;;;4.03;;
20110;SDS011;10216;42.658;23.248;2022-07-23T13:33:06;10.82;;;4.10;;
20110;SDS011;10216;42.658;23.248;2022-07-23T13:35:33;14.77;;;4.60;;
20110;SDS011;10216;42.658;23.248;2022-07-23T13:37:59;7.35;;;3.92;;
20110;SDS011;10216;42.658;23.248;2022-07-23T13:40:25;8.25;;;3.63;;
20110;SDS011;10216;42.658;23.248;2022-07-23T13:42:51;9.93;;;3.60;;
20110;SDS011;10216;42.658;23.248;2022-07-23T13:45:16;11.80;;;4.25;;
20110;SDS011;10216;42.658;23.248;2022-07-23T13:47:41;12.82;;;3.88;;
20110;SDS011;10216;42.658;23.248;2022-07-23T13:50:07;5.47;;;3.70;;
20110;SDS011;10216;42.658;23.248;2022-07-23T13:52:33;8.93;;;3.75;;
20110;SDS011;10216;42.658;23.248;2022-07-23T13:54:59;12.00;;;6.15;;
20110;SDS011;10216;42.658;23.248;2022-07-23T13:57:26;8.80;;;3.70;;
20110;SDS011;10216;42.658;23.248;2022-07-23T13:59:51;10.90;;;4.10;;
20110;SDS011;10216;42.658;23.248;2022-07-23T14:02:17;11.55;;;4.28;;
20110;SDS011;10216;42.658;23.248;2022-07-23T14:04:43;8.40;;;3.75;;
20110;SDS011;10216;42.658;23.248;2022-07-23T14:07:09;10.55;;;4.60;;
20110;SDS011;10216;42.658;23.248;2022-07-23T14:09:34;12.13;;;5.68;;
20110;SDS011;10216;42.658;23.248;2022-07-23T14:12:00;7.75;;;4.10;;
20110;SDS011;10216;42.658;23.248;2022-07-23T14:14:25;9.20;;;4.95;;
20110;SDS011;10216;42.658;23.248;2022-07-23T14:16:51;10.70;;;4.57;;
20110;SDS011;10216;42.658;23.248;2022-07-23T14:19:16;8.52;;;4.30;;
20110;SDS011;10216;42.658;23.248;2022-07-23T14:21:42;10.30;;;4.07;;
20110;SDS011;10216;42.658;23.248;2022-07-23T14:26:38;8.35;;;4.40;;
20110;SDS011;10216;42.658;23.248;2022-07-23T14:29:04;14.32;;;9.90;;
20110;SDS011;10216;42.658;23.248;2022-07-23T14:31:29;7.93;;;4.28;;
20110;SDS011;10216;42.658;23.248;2022-07-23T14:33:55;11.10;;;4.72;;
20110;SDS011;10216;42.658;23.248;2022-07-23T14:36:20;9.80;;;4.57;;
20110;SDS011;10216;42.658;23.248;2022-07-23T14:38:48;8.02;;;4.35;;
20110;SDS011;10216;42.658;23.248;2022-07-23T14:41:14;8.40;;;4.53;;
20110;SDS011;10216;42.658;23.248;2022-07-23T14:43:39;8.57;;;4.57;;
20110;SDS011;10216;42.658;23.248;2022-07-23T14:46:04;10.63;;;4.72;;
20110;SDS011;10216;42.658;23.248;2022-07-23T14:48:30;11.68;;;4.60;;
20110;SDS011;10216;42.658;23.248;2022-07-23T14:50:55;9.32;;;4.10;;
20110;SDS011;10216;42.658;23.248;2022-07-23T14:53:21;8.80;;;4.68;;
20110;SDS011;10216;42.658;23.248;2022-07-23T14:55:46;13.52;;;4.55;;
20110;SDS011;10216;42.658;23.248;2022-07-23T14:58:11;7.60;;;4.57;;
20110;SDS011;10216;42.658;23.248;2022-07-23T15:00:37;9.77;;;4.47;;
20110;SDS011;10216;42.658;23.248;2022-07-23T15:03:02;15.07;;;4.78;;
20110;SDS011;10216;42.658;23.248;2022-07-23T15:05:28;6.82;;;4.03;;
20110;SDS011;10216;42.658;23.248;2022-07-23T15:07:54;10.90;;;4.30;;
20110;SDS011;10216;42.658;23.248;2022-07-23T15:10:19;8.65;;;4.63;;
20110;SDS011;10216;42.658;23.248;2022-07-23T15:12:45;10.00;;;4.70;;